Terminal Aerodrome Forecast
Issued by NWS

Home | Current Version | Previous Version | Graphics & Text | Print | Product List | Glossary Off
Versions: 1 2 3 4 5 6 7 8 9 10 11 12 13 14

000
FTUS43 KBIS 211100
TAFDIK
TAF
KDIK 211120Z 2112/2212 15010KT P6SM SKC
     FM211800 17013G20KT P6SM SCT250
     FM220000 19008KT P6SM BKN200
     FM220900 27013KT P6SM SCT025 BKN090=

USA.gov is the U.S. government's official web portal to all federal, state and local government web resources and services.